Estación meteorológica de Calldetenes (Osona, Plana de Vic)

Consulta los datos en tiempo real de la estación meteorológica de Calldetenes





Hora UTC 05:05
Temperatura 7.6 ºC
Suelo 15 cm 7.6 ºC
Humedad 100.0 %
Presión 1012.6 hPa
Pluja 0.1 mm
Velocidad viento 2.3 km/h
Dirección viento ESE
Radiación solar 21.8 W/m²

Webcam

Datos diarios 2026-05-10



Hora UTC (invierno +1h; verano +2h)
Temperatura (ºC) Humedad (%) Presión (hPa) Velocidad viento (km/h) Precipitación (mm) Radiación solar (W/m²)
Hora UTC Aire Suelo 15 cm Humedad Presión Vel. Dir. Vel. Max Dir. Intent. máx 5 min. Rad. Sol.
00:05 11.3 11.1 100.0 1013.7 0.4 S 0.4 S 0.0 0.1
00:10 11.2 11.0 100.0 1013.7 1.5 SE 2.5 ESE 0.0 0.1
00:15 11.2 10.9 100.0 1013.5 2.6 SW 3.9 SSW 0.0 0.1
00:20 11.2 10.8 100.0 1013.5 2.8 SSW 4.9 SSW 0.0 0.1
00:25 11.3 10.8 100.0 1013.3 3.1 SSW 5.6 SSW 0.0 0.1
00:30 11.2 10.8 100.0 1013.3 2.8 S 4.2 SSW 0.0 0.1
00:35 11.1 10.8 100.0 1013.2 2.2 S 3.5 S 0.1 0.1
00:40 11.1 10.7 100.0 1013.2 2.8 SSW 4.6 SSW 0.0 0.1
00:45 10.7 10.5 100.0 1013.0 1.0 SSW 3.5 SSW 0.0 0.1
00:50 10.4 10.1 100.0 1013.0 3.5 S 5.3 S 0.0 0.1
00:55 10.2 9.8 100.0 1012.9 2.7 SSW 4.9 S 0.0 0.1
01:00 10.1 9.6 100.0 1012.9 1.6 SSW 4.2 S 0.0 0.1
01:05 10.0 9.4 100.0 1013.0 1.6 E 3.2 ENE 0.0 0.1
01:10 10.0 9.4 100.0 1013.0 0.2 E 1.4 E 0.0 0.1
01:15 9.8 9.3 100.0 1013.0 1.4 E 3.9 E 0.0 0.1
01:20 9.8 9.2 100.0 1013.0 3.8 E 4.9 E 0.0 0.1
01:25 9.8 9.3 100.0 1012.9 3.2 E 4.2 ESE 0.0 0.1
01:30 9.7 9.2 100.0 1012.9 1.7 ESE 4.2 E 0.0 0.1
01:35 9.4 9.0 100.0 1012.8 2.5 ESE 4.9 ESE 0.0 0.1
01:40 9.3 8.7 100.0 1012.8 4.3 SE 5.3 ESE 0.0 0.1
01:45 9.1 8.6 100.0 1012.9 4.1 ESE 5.6 ESE 0.0 0.1
01:50 8.7 8.4 99.9 1012.9 4.0 ESE 6.4 ESE 0.0 0.1
01:55 9.0 8.3 100.0 1012.9 5.5 ESE 7.1 ESE 0.0 0.1
02:00 9.0 8.5 100.0 1012.9 2.5 SE 4.9 SE 0.0 0.1
02:05 8.5 8.4 100.0 1013.0 2.8 SE 4.9 SE 0.0 0.1
02:10 8.3 8.1 100.0 1013.0 3.4 ESE 4.9 SE 0.0 0.1
02:15 8.1 7.8 100.0 1012.9 2.8 ESE 4.2 ESE 0.0 0.1
02:20 8.5 7.7 100.0 1012.9 3.6 SE 5.6 ESE 0.0 0.1
02:25 8.5 7.8 100.0 1012.9 2.2 SE 4.6 ESE 0.0 0.1
02:30 8.0 7.7 100.0 1012.9 5.3 ESE 8.1 ESE 0.0 0.1
02:35 7.9 7.6 100.0 1013.0 6.2 E 7.8 E 0.0 0.1
02:40 8.3 7.7 100.0 1013.0 6.3 ESE 8.1 ESE 0.0 0.1
02:45 8.6 8.0 100.0 1013.0 7.1 ESE 8.8 ESE 0.0 0.1
02:50 8.4 8.0 100.0 1013.0 6.4 ESE 8.1 ESE 0.0 0.1
02:55 8.0 7.8 100.0 1013.0 6.3 ESE 8.5 ESE 0.0 0.1
03:00 7.8 7.5 100.0 1013.0 6.7 ESE 8.1 ESE 0.0 0.1
03:05 7.7 7.4 100.0 1012.9 4.5 ESE 6.7 ESE 0.0 0.1
03:10 7.4 7.2 100.0 1012.9 5.8 ESE 7.8 ESE 0.0 0.1
03:15 7.8 7.3 100.0 1012.8 7.1 ESE 8.1 ESE 0.0 0.1
03:20 8.2 7.6 100.0 1012.8 4.9 ESE 7.4 ESE 0.0 0.1
03:25 8.3 7.8 100.0 1012.7 6.9 ESE 8.1 ESE 0.0 0.1
03:30 8.6 8.1 100.0 1012.7 4.9 SE 6.7 ESE 0.0 0.1
03:35 8.4 8.3 100.0 1012.7 2.5 ESE 6.4 E 0.0 0.1
03:40 8.2 8.1 100.0 1012.7 7.6 ESE 9.5 ESE 0.0 0.1
03:45 8.5 8.2 100.0 1012.5 5.3 ESE 7.8 ESE 0.0 0.1
03:50 8.5 8.3 100.0 1012.5 2.2 SE 4.9 SE 0.0 0.2
03:55 8.4 8.3 100.0 1012.5 1.3 NW 2.8 NNE 0.0 0.1
04:00 8.4 8.2 100.0 1012.5 1.1 NE 2.5 N 0.0 0.1
04:05 8.5 8.2 100.0 1012.5 0.9 ESE 2.1 ENE 0.0 0.1
04:10 8.4 8.1 100.0 1012.5 1.6 SSE 2.8 SSE 0.0 0.1
04:15 8.3 8.0 100.0 1012.5 0.2 S 1.8 S 0.0 0.1
04:20 8.2 7.8 100.0 1012.5 1.5 S 2.5 SSE 0.0 0.2
04:25 8.4 7.8 100.0 1012.5 1.7 S 3.2 SSW 0.0 0.5
04:30 8.4 8.0 100.0 1012.5 3.5 S 5.6 S 0.0 1.0
04:35 8.3 8.0 100.0 1012.6 3.5 SSW 6.7 SSW 0.0 2.0
04:40 8.3 8.0 100.0 1012.6 3.2 SSW 5.6 SSW 0.0 3.5
04:45 8.3 8.0 100.0 1012.6 2.9 SSW 5.6 S 0.0 6.0
04:50 8.1 7.9 100.0 1012.6 3.4 S 5.3 SSE 0.0 7.7
04:55 8.0 7.9 100.0 1012.6 2.2 S 3.9 SSW 0.0 12.1
05:00 7.9 7.9 100.0 1012.6 1.8 SE 3.2 SSE 0.0 14.3
05:05 7.6 7.6 100.0 1012.6 2.3 ESE 5.6 E 0.0 21.8
Máxima 11.3 11.1 100.0 1013.7 7.6 ESE 9.5 ESE 0.1 21.8
Mínima 7.4 7.2 99.9 1012.5
Total 0.1